sensor_id;sensor_type;location;lat;lon;timestamp;pressure;altitude;pressure_sealevel;temperature;humidity
67341;BME280;54227;45.198;5.732;2022-11-06T00:00:33;99519.53;;;24.23;nan
67341;BME280;54227;45.198;5.732;2022-11-06T00:02:59;99524.72;;;24.25;nan
67341;BME280;54227;45.198;5.732;2022-11-06T00:05:26;99521.94;;;24.25;nan
67341;BME280;54227;45.198;5.732;2022-11-06T00:08:11;99528.31;;;24.25;nan
67341;BME280;54227;45.198;5.732;2022-11-06T00:10:37;99529.91;;;24.23;nan
67341;BME280;54227;45.198;5.732;2022-11-06T00:13:03;99530.31;;;24.25;nan
67341;BME280;54227;45.198;5.732;2022-11-06T00:15:28;99521.94;;;24.25;nan
67341;BME280;54227;45.198;5.732;2022-11-06T00:17:54;99515.94;;;24.23;nan
67341;BME280;54227;45.198;5.732;2022-11-06T00:20:19;99513.94;;;24.23;nan
67341;BME280;54227;45.198;5.732;2022-11-06T00:22:44;99519.91;;;24.22;nan
67341;BME280;54227;45.198;5.732;2022-11-06T00:25:10;99524.31;;;24.23;nan
67341;BME280;54227;45.198;5.732;2022-11-06T00:27:37;99528.31;;;24.25;nan
67341;BME280;54227;45.198;5.732;2022-11-06T00:30:07;99528.72;;;24.24;nan
67341;BME280;54227;45.198;5.732;2022-11-06T00:32:34;99515.16;;;24.22;nan
67341;BME280;54227;45.198;5.732;2022-11-06T00:34:59;99520.34;;;24.24;nan
67341;BME280;54227;45.198;5.732;2022-11-06T00:37:25;99516.34;;;24.25;nan
67341;BME280;54227;45.198;5.732;2022-11-06T00:39:50;99505.56;;;24.23;nan
67341;BME280;54227;45.198;5.732;2022-11-06T00:42:16;99503.53;;;24.20;nan
67341;BME280;54227;45.198;5.732;2022-11-06T00:44:41;99513.53;;;24.25;nan
67341;BME280;54227;45.198;5.732;2022-11-06T00:47:07;99511.13;;;24.27;nan
67341;BME280;54227;45.198;5.732;2022-11-06T00:49:32;99514.34;;;24.29;nan
67341;BME280;54227;45.198;5.732;2022-11-06T00:51:58;99508.75;;;24.29;nan
67341;BME280;54227;45.198;5.732;2022-11-06T00:54:23;99519.56;;;24.30;nan
67341;BME280;54227;45.198;5.732;2022-11-06T00:56:49;99518.31;;;24.28;nan
67341;BME280;54227;45.198;5.732;2022-11-06T00:59:14;99513.13;;;24.26;nan
67341;BME280;54227;45.198;5.732;2022-11-06T01:01:42;99501.56;;;24.28;nan
67341;BME280;54227;45.198;5.732;2022-11-06T01:04:17;99504.34;;;24.28;nan
67341;BME280;54227;45.198;5.732;2022-11-06T01:06:45;99505.94;;;24.29;nan
67341;BME280;54227;45.198;5.732;2022-11-06T01:09:15;99516.31;;;24.28;nan
67341;BME280;54227;45.198;5.732;2022-11-06T01:11:46;99511.94;;;24.27;nan
67341;BME280;54227;45.198;5.732;2022-11-06T01:14:14;99516.72;;;24.27;nan
67341;BME280;54227;45.198;5.732;2022-11-06T01:16:42;99505.94;;;24.25;nan
67341;BME280;54227;45.198;5.732;2022-11-06T01:19:08;99501.97;;;24.26;nan
67341;BME280;54227;45.198;5.732;2022-11-06T01:21:37;99502.75;;;24.27;nan
67341;BME280;54227;45.198;5.732;2022-11-06T01:24:15;99503.16;;;24.25;nan
67341;BME280;54227;45.198;5.732;2022-11-06T01:26:41;99502.75;;;24.27;nan
67341;BME280;54227;45.198;5.732;2022-11-06T01:29:08;99484.00;;;24.24;nan
67341;BME280;54227;45.198;5.732;2022-11-06T01:31:34;99494.78;;;24.25;nan
67341;BME280;54227;45.198;5.732;2022-11-06T01:34:01;99494.78;;;24.25;nan
67341;BME280;54227;45.198;5.732;2022-11-06T01:36:28;99496.78;;;24.25;nan
67341;BME280;54227;45.198;5.732;2022-11-06T01:38:56;99484.78;;;24.24;nan
67341;BME280;54227;45.198;5.732;2022-11-06T01:41:28;99478.00;;;24.25;nan
67341;BME280;54227;45.198;5.732;2022-11-06T01:43:58;99480.00;;;24.25;nan
67341;BME280;54227;45.198;5.732;2022-11-06T01:46:30;99476.81;;;24.23;nan
67341;BME280;54227;45.198;5.732;2022-11-06T01:49:04;99480.00;;;24.25;nan
67341;BME280;54227;45.198;5.732;2022-11-06T01:51:35;99472.81;;;24.24;nan
67341;BME280;54227;45.198;5.732;2022-11-06T01:54:04;99468.03;;;24.24;nan
67341;BME280;54227;45.198;5.732;2022-11-06T01:56:31;99465.63;;;24.23;nan
67341;BME280;54227;45.198;5.732;2022-11-06T01:58:57;99468.03;;;24.24;nan
67341;BME280;54227;45.198;5.732;2022-11-06T02:01:23;99464.44;;;24.24;nan
67341;BME280;54227;45.198;5.732;2022-11-06T02:03:56;99464.81;;;24.26;nan
67341;BME280;54227;45.198;5.732;2022-11-06T02:06:23;99466.03;;;24.25;nan
67341;BME280;54227;45.198;5.732;2022-11-06T02:08:49;99464.44;;;24.24;nan
67341;BME280;54227;45.198;5.732;2022-11-06T02:11:15;99466.03;;;24.25;nan
67341;BME280;54227;45.198;5.732;2022-11-06T02:16:23;99450.44;;;24.24;nan
67341;BME280;54227;45.198;5.732;2022-11-06T02:19:03;99455.25;;;24.23;nan
67341;BME280;54227;45.198;5.732;2022-11-06T02:24:41;99434.88;;;24.23;nan
67341;BME280;54227;45.198;5.732;2022-11-06T02:27:17;99441.66;;;24.22;nan
67341;BME280;54227;45.198;5.732;2022-11-06T02:30:11;99431.66;;;24.21;nan
67341;BME280;54227;45.198;5.732;2022-11-06T02:32:39;99429.28;;;24.23;nan
67341;BME280;54227;45.198;5.732;2022-11-06T02:35:42;99428.88;;;24.21;nan
67341;BME280;54227;45.198;5.732;2022-11-06T02:38:15;99426.88;;;24.21;nan
67341;BME280;54227;45.198;5.732;2022-11-06T02:40:46;99420.88;;;24.19;nan
67341;BME280;54227;45.198;5.732;2022-11-06T02:43:14;99426.06;;;24.21;nan
67341;BME280;54227;45.198;5.732;2022-11-06T02:45:52;99426.47;;;24.19;nan
67341;BME280;54227;45.198;5.732;2022-11-06T02:48:24;99414.91;;;24.21;nan
67341;BME280;54227;45.198;5.732;2022-11-06T02:50:55;99418.50;;;24.21;nan
67341;BME280;54227;45.198;5.732;2022-11-06T02:53:24;99422.09;;;24.22;nan
67341;BME280;54227;45.198;5.732;2022-11-06T02:55:53;99419.69;;;24.20;nan
67341;BME280;54227;45.198;5.732;2022-11-06T02:58:27;99418.50;;;24.21;nan
67341;BME280;54227;45.198;5.732;2022-11-06T03:01:02;99413.31;;;24.20;nan
67341;BME280;54227;45.198;5.732;2022-11-06T03:03:34;99423.28;;;24.21;nan
67341;BME280;54227;45.198;5.732;2022-11-06T03:08:51;99413.69;;;24.22;nan
67341;BME280;54227;45.198;5.732;2022-11-06T03:11:22;99416.91;;;24.20;nan
67341;BME280;54227;45.198;5.732;2022-11-06T03:13:56;99413.31;;;24.20;nan
67341;BME280;54227;45.198;5.732;2022-11-06T03:16:30;99409.72;;;24.19;nan
67341;BME280;54227;45.198;5.732;2022-11-06T03:19:03;99409.31;;;24.21;nan
67341;BME280;54227;45.198;5.732;2022-11-06T03:24:18;99405.72;;;24.16;nan
67341;BME280;54227;45.198;5.732;2022-11-06T03:26:50;99414.50;;;24.19;nan
67341;BME280;54227;45.198;5.732;2022-11-06T03:29:28;99420.88;;;24.19;nan
67341;BME280;54227;45.198;5.732;2022-11-06T03:35:17;99408.91;;;24.19;nan
67341;BME280;54227;45.198;5.732;2022-11-06T03:38:08;99403.31;;;24.19;nan
67341;BME280;54227;45.198;5.732;2022-11-06T03:40:39;99397.75;;;24.19;nan
67341;BME280;54227;45.198;5.732;2022-11-06T03:43:11;99397.75;;;24.19;nan
67341;BME280;54227;45.198;5.732;2022-11-06T03:45:39;99394.16;;;24.18;nan
67341;BME280;54227;45.198;5.732;2022-11-06T03:48:18;99396.53;;;24.16;nan
67341;BME280;54227;45.198;5.732;2022-11-06T03:51:02;99406.13;;;24.19;nan
67341;BME280;54227;45.198;5.732;2022-11-06T03:53:47;99399.72;;;24.18;nan
67341;BME280;54227;45.198;5.732;2022-11-06T03:56:22;99406.50;;;24.13;nan
67341;BME280;54227;45.198;5.732;2022-11-06T03:58:50;99418.50;;;24.17;nan
67341;BME280;54227;45.198;5.732;2022-11-06T04:01:21;99416.91;;;24.16;nan
67341;BME280;54227;45.198;5.732;2022-11-06T04:03:52;99410.53;;;24.16;nan
67341;BME280;54227;45.198;5.732;2022-11-06T04:06:30;99415.72;;;24.17;nan
67341;BME280;54227;45.198;5.732;2022-11-06T04:09:00;99418.91;;;24.20;nan
67341;BME280;54227;45.198;5.732;2022-11-06T04:11:47;99419.28;;;24.22;nan
67341;BME280;54227;45.198;5.732;2022-11-06T04:14:33;99420.13;;;24.22;nan
67341;BME280;54227;45.198;5.732;2022-11-06T04:17:05;99435.25;;;24.21;nan
67341;BME280;54227;45.198;5.732;2022-11-06T04:19:31;99442.47;;;24.22;nan
67341;BME280;54227;45.198;5.732;2022-11-06T04:24:37;99436.47;;;24.20;nan
67341;BME280;54227;45.198;5.732;2022-11-06T04:37:45;99429.28;;;24.23;nan
67341;BME280;54227;45.198;5.732;2022-11-06T04:40:36;99418.91;;;24.20;nan
67341;BME280;54227;45.198;5.732;2022-11-06T04:45:53;99430.88;;;24.16;nan
67341;BME280;54227;45.198;5.732;2022-11-06T04:48:21;99418.91;;;24.16;nan
67341;BME280;54227;45.198;5.732;2022-11-06T04:50:59;99414.13;;;24.16;nan
67341;BME280;54227;45.198;5.732;2022-11-06T04:53:28;99409.31;;;24.17;nan
67341;BME280;54227;45.198;5.732;2022-11-06T04:56:00;99402.94;;;24.16;nan
67341;BME280;54227;45.198;5.732;2022-11-06T04:58:25;99405.72;;;24.16;nan
67341;BME280;54227;45.198;5.732;2022-11-06T05:00:51;99398.13;;;24.17;nan
67341;BME280;54227;45.198;5.732;2022-11-06T05:03:17;99395.75;;;24.15;nan
67341;BME280;54227;45.198;5.732;2022-11-06T05:05:43;99397.75;;;24.15;nan
67341;BME280;54227;45.198;5.732;2022-11-06T05:08:13;99392.56;;;24.17;nan
67341;BME280;54227;45.198;5.732;2022-11-06T05:10:40;99388.97;;;24.16;nan
67341;BME280;54227;45.198;5.732;2022-11-06T05:13:06;99389.75;;;24.17;nan
67341;BME280;54227;45.198;5.732;2022-11-06T05:15:31;99394.94;;;24.19;nan
67341;BME280;54227;45.198;5.732;2022-11-06T05:17:57;99386.97;;;24.17;nan
67341;BME280;54227;45.198;5.732;2022-11-06T05:20:23;99383.78;;;24.15;nan
67341;BME280;54227;45.198;5.732;2022-11-06T05:22:49;99378.97;;;24.15;nan
67341;BME280;54227;45.198;5.732;2022-11-06T05:25:29;99374.97;;;24.16;nan
67341;BME280;54227;45.198;5.732;2022-11-06T05:27:55;99373.00;;;24.17;nan
67341;BME280;54227;45.198;5.732;2022-11-06T05:30:21;99367.38;;;24.13;nan
67341;BME280;54227;45.198;5.732;2022-11-06T05:32:46;99374.19;;;24.16;nan
67341;BME280;54227;45.198;5.732;2022-11-06T05:35:13;99368.19;;;24.17;nan
67341;BME280;54227;45.198;5.732;2022-11-06T05:37:38;99358.22;;;24.16;nan
67341;BME280;54227;45.198;5.732;2022-11-06T05:40:04;99357.41;;;24.16;nan
67341;BME280;54227;45.198;5.732;2022-11-06T05:42:30;99348.63;;;24.17;nan
67341;BME280;54227;45.198;5.732;2022-11-06T05:44:55;99343.44;;;24.16;nan
67341;BME280;54227;45.198;5.732;2022-11-06T05:47:21;99332.28;;;24.16;nan
67341;BME280;54227;45.198;5.732;2022-11-06T05:49:46;99328.69;;;24.15;nan
67341;BME280;54227;45.198;5.732;2022-11-06T05:52:11;99325.88;;;24.15;nan
67341;BME280;54227;45.198;5.732;2022-11-06T05:54:37;99322.28;;;24.15;nan
67341;BME280;54227;45.198;5.732;2022-11-06T05:57:03;99320.28;;;24.15;nan
67341;BME280;54227;45.198;5.732;2022-11-06T05:59:28;99312.28;;;24.14;nan
67341;BME280;54227;45.198;5.732;2022-11-06T06:01:54;99316.72;;;24.15;nan
67341;BME280;54227;45.198;5.732;2022-11-06T06:04:21;99315.09;;;24.14;nan
67341;BME280;54227;45.198;5.732;2022-11-06T06:06:47;99306.31;;;24.12;nan
67341;BME280;54227;45.198;5.732;2022-11-06T06:09:12;99303.91;;;24.14;nan
67341;BME280;54227;45.198;5.732;2022-11-06T06:11:37;99311.91;;;24.15;nan
67341;BME280;54227;45.198;5.732;2022-11-06T06:14:03;99309.13;;;24.15;nan
67341;BME280;54227;45.198;5.732;2022-11-06T06:16:29;99303.91;;;24.14;nan
67341;BME280;54227;45.198;5.732;2022-11-06T06:18:55;99315.09;;;24.14;nan
67341;BME280;54227;45.198;5.732;2022-11-06T06:21:20;99307.09;;;24.12;nan
67341;BME280;54227;45.198;5.732;2022-11-06T06:23:45;99316.72;;;24.15;nan
67341;BME280;54227;45.198;5.732;2022-11-06T06:26:11;99312.28;;;24.14;nan
67341;BME280;54227;45.198;5.732;2022-11-06T06:28:36;99314.28;;;24.13;nan
67341;BME280;54227;45.198;5.732;2022-11-06T06:31:04;99315.09;;;24.14;nan
67341;BME280;54227;45.198;5.732;2022-11-06T06:33:30;99307.50;;;24.14;nan
67341;BME280;54227;45.198;5.732;2022-11-06T06:35:55;99302.31;;;24.13;nan
67341;BME280;54227;45.198;5.732;2022-11-06T06:38:21;99303.91;;;24.14;nan
67341;BME280;54227;45.198;5.732;2022-11-06T06:40:46;99308.69;;;24.13;nan
67341;BME280;54227;45.198;5.732;2022-11-06T06:43:12;99305.09;;;24.13;nan
67341;BME280;54227;45.198;5.732;2022-11-06T06:45:37;99297.53;;;24.10;nan
67341;BME280;54227;45.198;5.732;2022-11-06T06:48:03;99301.50;;;24.12;nan
67341;BME280;54227;45.198;5.732;2022-11-06T06:50:29;99298.72;;;24.12;nan
67341;BME280;54227;45.198;5.732;2022-11-06T06:52:58;99302.31;;;24.13;nan
67341;BME280;54227;45.198;5.732;2022-11-06T06:55:24;99301.09;;;24.14;nan
67341;BME280;54227;45.198;5.732;2022-11-06T06:58:00;99300.72;;;24.12;nan
67341;BME280;54227;45.198;5.732;2022-11-06T07:00:26;99305.09;;;24.13;nan
67341;BME280;54227;45.198;5.732;2022-11-06T07:02:51;99307.09;;;24.12;nan
67341;BME280;54227;45.198;5.732;2022-11-06T07:05:17;99303.91;;;24.10;nan
67341;BME280;54227;45.198;5.732;2022-11-06T07:07:43;99313.50;;;24.13;nan
67341;BME280;54227;45.198;5.732;2022-11-06T07:10:08;99307.91;;;24.13;nan
67341;BME280;54227;45.198;5.732;2022-11-06T07:12:34;99307.13;;;24.16;nan
67341;BME280;54227;45.198;5.732;2022-11-06T07:14:59;99308.31;;;24.19;nan
67341;BME280;54227;45.198;5.732;2022-11-06T07:17:24;99311.09;;;24.19;nan
67341;BME280;54227;45.198;5.732;2022-11-06T07:19:50;99312.31;;;24.17;nan
67341;BME280;54227;45.198;5.732;2022-11-06T07:22:15;99315.09;;;24.17;nan
67341;BME280;54227;45.198;5.732;2022-11-06T07:24:40;99316.28;;;24.16;nan
67341;BME280;54227;45.198;5.732;2022-11-06T07:27:06;99317.88;;;24.17;nan
67341;BME280;54227;45.198;5.732;2022-11-06T07:29:31;99319.09;;;24.16;nan
67341;BME280;54227;45.198;5.732;2022-11-06T07:31:56;99320.69;;;24.17;nan
67341;BME280;54227;45.198;5.732;2022-11-06T07:34:22;99321.88;;;24.16;nan
67341;BME280;54227;45.198;5.732;2022-11-06T07:36:48;99315.88;;;24.14;nan
67341;BME280;54227;45.198;5.732;2022-11-06T07:39:14;99324.69;;;24.16;nan
67341;BME280;54227;45.198;5.732;2022-11-06T07:41:39;99319.88;;;24.17;nan
67341;BME280;54227;45.198;5.732;2022-11-06T07:44:05;99315.88;;;24.18;nan
67341;BME280;54227;45.198;5.732;2022-11-06T07:46:30;99315.09;;;24.17;nan
67341;BME280;54227;45.198;5.732;2022-11-06T07:48:56;99303.13;;;24.17;nan
67341;BME280;54227;45.198;5.732;2022-11-06T07:51:22;99299.13;;;24.14;nan
67341;BME280;54227;45.198;5.732;2022-11-06T07:53:47;99303.91;;;24.17;nan
67341;BME280;54227;45.198;5.732;2022-11-06T07:56:14;99302.31;;;24.16;nan
67341;BME280;54227;45.198;5.732;2022-11-06T07:58:39;99297.53;;;24.17;nan
67341;BME280;54227;45.198;5.732;2022-11-06T08:01:05;99291.94;;;24.17;nan
67341;BME280;54227;45.198;5.732;2022-11-06T08:03:30;99289.16;;;24.17;nan
67341;BME280;54227;45.198;5.732;2022-11-06T08:05:57;99301.50;;;24.20;nan
67341;BME280;54227;45.198;5.732;2022-11-06T08:08:23;99294.75;;;24.17;nan
67341;BME280;54227;45.198;5.732;2022-11-06T08:10:50;99293.53;;;24.18;nan
67341;BME280;54227;45.198;5.732;2022-11-06T08:13:18;99295.13;;;24.19;nan
67341;BME280;54227;45.198;5.732;2022-11-06T08:15:43;99293.53;;;24.18;nan
67341;BME280;54227;45.198;5.732;2022-11-06T08:18:09;99298.72;;;24.20;nan
67341;BME280;54227;45.198;5.732;2022-11-06T08:20:36;99283.16;;;24.19;nan
67341;BME280;54227;45.198;5.732;2022-11-06T08:23:06;99286.75;;;24.19;nan
67341;BME280;54227;45.198;5.732;2022-11-06T08:25:33;99286.34;;;24.17;nan
67341;BME280;54227;45.198;5.732;2022-11-06T08:28:00;99289.94;;;24.21;nan
67341;BME280;54227;45.198;5.732;2022-11-06T08:30:27;99277.56;;;24.19;nan
67341;BME280;54227;45.198;5.732;2022-11-06T08:32:54;99279.53;;;24.22;nan
67341;BME280;54227;45.198;5.732;2022-11-06T08:35:20;99265.56;;;24.22;nan
67341;BME280;54227;45.198;5.732;2022-11-06T08:37:45;99270.34;;;24.21;nan
67341;BME280;54227;45.198;5.732;2022-11-06T08:40:11;99276.75;;;24.22;nan
67341;BME280;54227;45.198;5.732;2022-11-06T08:42:36;99274.34;;;24.20;nan
67341;BME280;54227;45.198;5.732;2022-11-06T08:45:02;99266.38;;;24.22;nan
67341;BME280;54227;45.198;5.732;2022-11-06T08:47:27;99268.38;;;24.22;nan
67341;BME280;54227;45.198;5.732;2022-11-06T08:49:53;99262.41;;;24.23;nan
67341;BME280;54227;45.198;5.732;2022-11-06T08:52:23;99257.59;;;24.24;nan
67341;BME280;54227;45.198;5.732;2022-11-06T08:54:48;99251.22;;;24.23;nan
67341;BME280;54227;45.198;5.732;2022-11-06T08:57:14;99254.00;;;24.23;nan
67341;BME280;54227;45.198;5.732;2022-11-06T08:59:39;99245.63;;;24.23;nan
67341;BME280;54227;45.198;5.732;2022-11-06T09:02:05;99236.84;;;24.25;nan
67341;BME280;54227;45.198;5.732;2022-11-06T09:04:31;99244.41;;;24.24;nan
67341;BME280;54227;45.198;5.732;2022-11-06T09:06:57;99238.84;;;24.24;nan
67341;BME280;54227;45.198;5.732;2022-11-06T09:09:22;99245.63;;;24.23;nan
67341;BME280;54227;45.198;5.732;2022-11-06T09:11:56;99243.22;;;24.25;nan
67341;BME280;54227;45.198;5.732;2022-11-06T09:14:22;99249.59;;;24.26;nan
67341;BME280;54227;45.198;5.732;2022-11-06T09:16:48;99242.00;;;24.26;nan
67341;BME280;54227;45.198;5.732;2022-11-06T09:19:16;99244.00;;;24.26;nan
67341;BME280;54227;45.198;5.732;2022-11-06T09:21:42;99239.22;;;24.26;nan
67341;BME280;54227;45.198;5.732;2022-11-06T09:24:07;99234.41;;;24.27;nan
67341;BME280;54227;45.198;5.732;2022-11-06T09:26:33;99231.25;;;24.25;nan
67341;BME280;54227;45.198;5.732;2022-11-06T09:28:58;99233.22;;;24.28;nan
67341;BME280;54227;45.198;5.732;2022-11-06T09:31:23;99243.19;;;24.29;nan
67341;BME280;54227;45.198;5.732;2022-11-06T09:33:49;99232.00;;;24.29;nan
67341;BME280;54227;45.198;5.732;2022-11-06T09:36:18;99232.00;;;24.29;nan
67341;BME280;54227;45.198;5.732;2022-11-06T09:38:43;99237.59;;;24.29;nan
67341;BME280;54227;45.198;5.732;2022-11-06T09:41:30;99233.63;;;24.30;nan
67341;BME280;54227;45.198;5.732;2022-11-06T09:46:44;99236.03;;;24.31;nan
67341;BME280;54227;45.198;5.732;2022-11-06T09:52:16;99231.22;;;24.32;nan
67341;BME280;54227;45.198;5.732;2022-11-06T09:54:53;99231.22;;;24.32;nan
67341;BME280;54227;45.198;5.732;2022-11-06T09:57:27;99220.84;;;24.32;nan
67341;BME280;54227;45.198;5.732;2022-11-06T09:59:54;99219.25;;;24.31;nan
67341;BME280;54227;45.198;5.732;2022-11-06T10:02:35;99222.84;;;24.32;nan
67341;BME280;54227;45.198;5.732;2022-11-06T10:07:43;99222.47;;;24.33;nan
67341;BME280;54227;45.198;5.732;2022-11-06T10:10:15;99213.28;;;24.33;nan
67341;BME280;54227;45.198;5.732;2022-11-06T10:18:28;99211.28;;;24.33;nan
67341;BME280;54227;45.198;5.732;2022-11-06T10:23:59;99215.25;;;24.36;nan
67341;BME280;54227;45.198;5.732;2022-11-06T10:26:39;99204.91;;;24.36;nan
67341;BME280;54227;45.198;5.732;2022-11-06T10:34:28;99207.66;;;24.40;nan
67341;BME280;54227;45.198;5.732;2022-11-06T10:36:59;99197.69;;;24.39;nan
67341;BME280;54227;45.198;5.732;2022-11-06T10:39:33;99196.91;;;24.38;nan
67341;BME280;54227;45.198;5.732;2022-11-06T10:42:10;99194.88;;;24.35;nan
67341;BME280;54227;45.198;5.732;2022-11-06T10:47:21;99188.91;;;24.40;nan
67341;BME280;54227;45.198;5.732;2022-11-06T10:49:55;99188.91;;;24.40;nan
67341;BME280;54227;45.198;5.732;2022-11-06T10:52:31;99188.91;;;24.40;nan
67341;BME280;54227;45.198;5.732;2022-11-06T10:58:01;99176.09;;;24.43;nan
67341;BME280;54227;45.198;5.732;2022-11-06T11:00:27;99174.91;;;24.44;nan
67341;BME280;54227;45.198;5.732;2022-11-06T11:03:03;99172.91;;;24.45;nan
67341;BME280;54227;45.198;5.732;2022-11-06T11:05:39;99168.13;;;24.45;nan
67341;BME280;54227;45.198;5.732;2022-11-06T11:08:05;99155.34;;;24.44;nan
67341;BME280;54227;45.198;5.732;2022-11-06T11:10:34;99152.53;;;24.44;nan
67341;BME280;54227;45.198;5.732;2022-11-06T11:13:02;99140.16;;;24.45;nan
67341;BME280;54227;45.198;5.732;2022-11-06T11:15:33;99142.13;;;24.48;nan
67341;BME280;54227;45.198;5.732;2022-11-06T11:20:33;99124.94;;;24.50;nan
67341;BME280;54227;45.198;5.732;2022-11-06T11:23:16;99121.34;;;24.49;nan
67341;BME280;54227;45.198;5.732;2022-11-06T11:25:45;99118.97;;;24.48;nan
67341;BME280;54227;45.198;5.732;2022-11-06T11:28:32;99103.00;;;24.48;nan
67341;BME280;54227;45.198;5.732;2022-11-06T11:31:07;99094.97;;;24.50;nan
67341;BME280;54227;45.198;5.732;2022-11-06T11:33:34;99094.97;;;24.50;nan
67341;BME280;54227;45.198;5.732;2022-11-06T11:36:01;99088.22;;;24.51;nan
67341;BME280;54227;45.198;5.732;2022-11-06T11:38:28;99076.63;;;24.49;nan
67341;BME280;54227;45.198;5.732;2022-11-06T11:41:13;99072.22;;;24.52;nan
67341;BME280;54227;45.198;5.732;2022-11-06T11:43:56;99075.41;;;24.50;nan
67341;BME280;54227;45.198;5.732;2022-11-06T11:46:28;99071.81;;;24.53;nan
67341;BME280;54227;45.198;5.732;2022-11-06T11:48:55;99074.59;;;24.53;nan
67341;BME280;54227;45.198;5.732;2022-11-06T11:53:55;99056.25;;;24.52;nan
67341;BME280;54227;45.198;5.732;2022-11-06T11:56:21;99059.41;;;24.54;nan
67341;BME280;54227;45.198;5.732;2022-11-06T11:58:52;99060.63;;;24.53;nan
67341;BME280;54227;45.198;5.732;2022-11-06T12:01:33;99057.03;;;24.53;nan
67341;BME280;54227;45.198;5.732;2022-11-06T12:04:06;99051.44;;;24.53;nan
67341;BME280;54227;45.198;5.732;2022-11-06T12:06:34;99055.03;;;24.53;nan
67341;BME280;54227;45.198;5.732;2022-11-06T12:08:59;99054.25;;;24.53;nan
67341;BME280;54227;45.198;5.732;2022-11-06T12:11:28;99051.84;;;24.51;nan
67341;BME280;54227;45.198;5.732;2022-11-06T12:14:26;99035.47;;;24.53;nan
67341;BME280;54227;45.198;5.732;2022-11-06T12:16:59;99029.50;;;24.51;nan
67341;BME280;54227;45.198;5.732;2022-11-06T12:19:29;99036.66;;;24.52;nan
67341;BME280;54227;45.198;5.732;2022-11-06T12:22:00;99037.09;;;24.51;nan
67341;BME280;54227;45.198;5.732;2022-11-06T12:25:04;99034.66;;;24.53;nan
67341;BME280;54227;45.198;5.732;2022-11-06T12:27:37;99029.88;;;24.53;nan
67341;BME280;54227;45.198;5.732;2022-11-06T12:30:09;99027.06;;;24.53;nan
67341;BME280;54227;45.198;5.732;2022-11-06T12:32:37;99029.88;;;24.53;nan
67341;BME280;54227;45.198;5.732;2022-11-06T12:35:28;99026.28;;;24.53;nan
67341;BME280;54227;45.198;5.732;2022-11-06T12:40:39;99007.50;;;24.53;nan
67341;BME280;54227;45.198;5.732;2022-11-06T12:43:09;99006.72;;;24.53;nan
67341;BME280;54227;45.198;5.732;2022-11-06T12:56:55;98999.53;;;24.52;nan
67341;BME280;54227;45.198;5.732;2022-11-06T13:05:15;98989.13;;;24.52;nan
67341;BME280;54227;45.198;5.732;2022-11-06T13:10:45;98985.56;;;24.52;nan
67341;BME280;54227;45.198;5.732;2022-11-06T13:16:01;98985.13;;;24.53;nan
67341;BME280;54227;45.198;5.732;2022-11-06T13:18:37;98977.16;;;24.52;nan
67341;BME280;54227;45.198;5.732;2022-11-06T13:23:41;98979.97;;;24.52;nan
67341;BME280;54227;45.198;5.732;2022-11-06T13:29:03;98972.38;;;24.52;nan
67341;BME280;54227;45.198;5.732;2022-11-06T13:32:00;98969.16;;;24.54;nan
67341;BME280;54227;45.198;5.732;2022-11-06T13:34:34;98959.19;;;24.53;nan
67341;BME280;54227;45.198;5.732;2022-11-06T13:37:04;98955.59;;;24.52;nan
67341;BME280;54227;45.198;5.732;2022-11-06T13:39:37;98961.19;;;24.52;nan
67341;BME280;54227;45.198;5.732;2022-11-06T13:42:21;98967.16;;;24.54;nan
67341;BME280;54227;45.198;5.732;2022-11-06T13:44:49;98961.56;;;24.54;nan
67341;BME280;54227;45.198;5.732;2022-11-06T13:47:21;98955.97;;;24.54;nan
67341;BME280;54227;45.198;5.732;2022-11-06T13:52:45;98975.53;;;24.54;nan
67341;BME280;54227;45.198;5.732;2022-11-06T14:03:27;98976.75;;;24.53;nan
67341;BME280;54227;45.198;5.732;2022-11-06T14:06:14;98977.97;;;24.52;nan
67341;BME280;54227;45.198;5.732;2022-11-06T14:08:44;98975.56;;;24.51;nan
67341;BME280;54227;45.198;5.732;2022-11-06T14:11:14;98975.94;;;24.53;nan
67341;BME280;54227;45.198;5.732;2022-11-06T14:14:22;98976.38;;;24.51;nan
67341;BME280;54227;45.198;5.732;2022-11-06T14:16:40;98980.34;;;24.54;nan
67341;BME280;54227;45.198;5.732;2022-11-06T14:19:23;98983.53;;;24.52;nan
67341;BME280;54227;45.198;5.732;2022-11-06T14:21:52;98978.75;;;24.53;nan
67341;BME280;54227;45.198;5.732;2022-11-06T14:24:31;98989.13;;;24.52;nan
67341;BME280;54227;45.198;5.732;2022-11-06T14:26:59;98983.53;;;24.52;nan
67341;BME280;54227;45.198;5.732;2022-11-06T14:32:31;98979.97;;;24.52;nan
67341;BME280;54227;45.198;5.732;2022-11-06T14:34:57;98988.28;;;24.59;nan
67341;BME280;54227;45.198;5.732;2022-11-06T14:40:12;98976.75;;;24.53;nan
67341;BME280;54227;45.198;5.732;2022-11-06T14:42:43;98974.75;;;24.50;nan
67341;BME280;54227;45.198;5.732;2022-11-06T14:45:10;98977.16;;;24.52;nan
67341;BME280;54227;45.198;5.732;2022-11-06T14:47:40;98983.56;;;24.49;nan
67341;BME280;54227;45.198;5.732;2022-11-06T14:52:48;98987.16;;;24.49;nan
67341;BME280;54227;45.198;5.732;2022-11-06T14:55:39;98994.31;;;24.50;nan
67341;BME280;54227;45.198;5.732;2022-11-06T14:58:19;98996.31;;;24.50;nan
67341;BME280;54227;45.198;5.732;2022-11-06T15:00:55;98988.34;;;24.48;nan
67341;BME280;54227;45.198;5.732;2022-11-06T15:05:55;98993.56;;;24.46;nan
67341;BME280;54227;45.198;5.732;2022-11-06T15:19:22;99019.53;;;24.47;nan
67341;BME280;54227;45.198;5.732;2022-11-06T15:21:53;99023.91;;;24.48;nan
67341;BME280;54227;45.198;5.732;2022-11-06T15:26:51;99025.91;;;24.47;nan
67341;BME280;54227;45.198;5.732;2022-11-06T15:29:27;99033.91;;;24.45;nan
67341;BME280;54227;45.198;5.732;2022-11-06T15:32:23;99026.75;;;24.44;nan
67341;BME280;54227;45.198;5.732;2022-11-06T15:37:20;99033.50;;;24.43;nan
67341;BME280;54227;45.198;5.732;2022-11-06T15:42:22;99025.53;;;24.41;nan
67341;BME280;54227;45.198;5.732;2022-11-06T15:44:49;99032.72;;;24.42;nan
67341;BME280;54227;45.198;5.732;2022-11-06T15:47:23;99025.53;;;24.41;nan
67341;BME280;54227;45.198;5.732;2022-11-06T15:50:28;99027.91;;;24.43;nan
67341;BME280;54227;45.198;5.732;2022-11-06T15:53:20;99043.53;;;24.40;nan